sensor_id;sensor_type;location;lat;lon;timestamp;P1;durP1;ratioP1;P2;durP2;ratioP2
3309;SDS011;1667;53.238;10.394;2022-11-20T00:01:10;12.43;;;4.17;;
3309;SDS011;1667;53.238;10.394;2022-11-20T00:06:10;6.77;;;4.57;;
3309;SDS011;1667;53.238;10.394;2022-11-20T00:11:11;6.57;;;5.10;;
3309;SDS011;1667;53.238;10.394;2022-11-20T00:16:12;9.90;;;5.70;;
3309;SDS011;1667;53.238;10.394;2022-11-20T00:21:12;5.63;;;4.63;;
3309;SDS011;1667;53.238;10.394;2022-11-20T00:26:14;6.63;;;4.50;;
3309;SDS011;1667;53.238;10.394;2022-11-20T00:31:14;7.00;;;4.80;;
3309;SDS011;1667;53.238;10.394;2022-11-20T00:36:14;6.77;;;4.93;;
3309;SDS011;1667;53.238;10.394;2022-11-20T00:41:15;4.40;;;4.00;;
3309;SDS011;1667;53.238;10.394;2022-11-20T00:46:14;6.30;;;5.00;;
3309;SDS011;1667;53.238;10.394;2022-11-20T00:51:13;9.00;;;5.80;;
3309;SDS011;1667;53.238;10.394;2022-11-20T00:56:14;10.10;;;5.60;;
3309;SDS011;1667;53.238;10.394;2022-11-20T01:01:15;10.63;;;5.50;;
3309;SDS011;1667;53.238;10.394;2022-11-20T01:06:16;5.47;;;4.73;;
3309;SDS011;1667;53.238;10.394;2022-11-20T01:11:18;8.43;;;6.03;;
3309;SDS011;1667;53.238;10.394;2022-11-20T01:16:18;8.13;;;6.07;;
3309;SDS011;1667;53.238;10.394;2022-11-20T01:21:18;6.90;;;5.60;;
3309;SDS011;1667;53.238;10.394;2022-11-20T01:26:19;9.33;;;6.30;;
3309;SDS011;1667;53.238;10.394;2022-11-20T01:31:19;9.17;;;6.73;;
3309;SDS011;1667;53.238;10.394;2022-11-20T01:36:19;10.90;;;6.53;;
3309;SDS011;1667;53.238;10.394;2022-11-20T01:41:21;5.43;;;4.93;;
3309;SDS011;1667;53.238;10.394;2022-11-20T01:53:11;8.87;;;6.00;;
3309;SDS011;1667;53.238;10.394;2022-11-20T01:58:15;7.20;;;5.40;;
3309;SDS011;1667;53.238;10.394;2022-11-20T02:03:18;7.40;;;4.17;;
3309;SDS011;1667;53.238;10.394;2022-11-20T02:08:17;9.27;;;6.70;;
3309;SDS011;1667;53.238;10.394;2022-11-20T02:13:18;8.33;;;6.07;;
3309;SDS011;1667;53.238;10.394;2022-11-20T02:18:33;7.97;;;5.07;;
3309;SDS011;1667;53.238;10.394;2022-11-20T02:23:32;7.67;;;4.77;;
3309;SDS011;1667;53.238;10.394;2022-11-20T02:28:37;7.23;;;4.40;;
3309;SDS011;1667;53.238;10.394;2022-11-20T02:33:35;10.60;;;4.90;;
3309;SDS011;1667;53.238;10.394;2022-11-20T02:38:33;9.40;;;5.17;;
3309;SDS011;1667;53.238;10.394;2022-11-20T02:43:31;7.07;;;4.30;;
3309;SDS011;1667;53.238;10.394;2022-11-20T02:48:31;4.77;;;4.13;;
3309;SDS011;1667;53.238;10.394;2022-11-20T02:53:29;5.77;;;4.40;;
3309;SDS011;1667;53.238;10.394;2022-11-20T02:58:27;5.40;;;4.60;;
3309;SDS011;1667;53.238;10.394;2022-11-20T03:03:25;5.63;;;4.60;;
3309;SDS011;1667;53.238;10.394;2022-11-20T03:08:25;5.17;;;4.13;;
3309;SDS011;1667;53.238;10.394;2022-11-20T03:13:24;7.60;;;4.77;;
3309;SDS011;1667;53.238;10.394;2022-11-20T03:18:22;5.60;;;4.03;;
3309;SDS011;1667;53.238;10.394;2022-11-20T03:23:21;5.17;;;3.90;;
3309;SDS011;1667;53.238;10.394;2022-11-20T03:28:20;6.57;;;4.63;;
3309;SDS011;1667;53.238;10.394;2022-11-20T03:33:18;4.17;;;3.27;;
3309;SDS011;1667;53.238;10.394;2022-11-20T03:38:16;6.50;;;3.60;;
3309;SDS011;1667;53.238;10.394;2022-11-20T03:50:11;5.43;;;3.80;;
3309;SDS011;1667;53.238;10.394;2022-11-20T03:55:10;6.67;;;3.87;;
3309;SDS011;1667;53.238;10.394;2022-11-20T04:00:09;4.70;;;3.57;;
3309;SDS011;1667;53.238;10.394;2022-11-20T04:05:08;4.93;;;3.20;;
3309;SDS011;1667;53.238;10.394;2022-11-20T04:10:08;5.00;;;4.00;;
3309;SDS011;1667;53.238;10.394;2022-11-20T04:15:06;6.27;;;4.70;;
3309;SDS011;1667;53.238;10.394;2022-11-20T04:20:05;4.80;;;4.07;;
3309;SDS011;1667;53.238;10.394;2022-11-20T04:25:04;5.20;;;4.10;;
3309;SDS011;1667;53.238;10.394;2022-11-20T04:30:05;6.13;;;4.03;;
3309;SDS011;1667;53.238;10.394;2022-11-20T04:35:04;4.23;;;3.60;;
3309;SDS011;1667;53.238;10.394;2022-11-20T04:40:02;7.33;;;4.80;;
3309;SDS011;1667;53.238;10.394;2022-11-20T04:45:01;8.00;;;4.37;;
3309;SDS011;1667;53.238;10.394;2022-11-20T04:50:01;5.60;;;3.80;;
3309;SDS011;1667;53.238;10.394;2022-11-20T04:54:59;6.10;;;4.67;;
3309;SDS011;1667;53.238;10.394;2022-11-20T04:59:57;7.33;;;4.00;;
3309;SDS011;1667;53.238;10.394;2022-11-20T05:04:56;5.47;;;3.80;;
3309;SDS011;1667;53.238;10.394;2022-11-20T05:09:55;8.00;;;5.90;;
3309;SDS011;1667;53.238;10.394;2022-11-20T05:14:53;6.37;;;5.00;;
3309;SDS011;1667;53.238;10.394;2022-11-20T05:19:51;6.43;;;4.10;;
3309;SDS011;1667;53.238;10.394;2022-11-20T05:24:49;4.47;;;3.83;;
3309;SDS011;1667;53.238;10.394;2022-11-20T05:29:49;7.30;;;4.40;;
3309;SDS011;1667;53.238;10.394;2022-11-20T05:34:47;8.33;;;4.90;;
3309;SDS011;1667;53.238;10.394;2022-11-20T05:39:45;5.77;;;4.37;;
3309;SDS011;1667;53.238;10.394;2022-11-20T05:44:43;8.20;;;6.00;;
3309;SDS011;1667;53.238;10.394;2022-11-20T05:49:43;6.50;;;4.97;;
3309;SDS011;1667;53.238;10.394;2022-11-20T05:54:41;8.63;;;5.20;;
3309;SDS011;1667;53.238;10.394;2022-11-20T05:59:39;6.63;;;4.93;;
3309;SDS011;1667;53.238;10.394;2022-11-20T06:04:37;6.50;;;5.47;;
3309;SDS011;1667;53.238;10.394;2022-11-20T06:09:37;9.30;;;5.87;;
3309;SDS011;1667;53.238;10.394;2022-11-20T06:14:35;7.63;;;5.03;;
3309;SDS011;1667;53.238;10.394;2022-11-20T06:19:33;7.67;;;5.53;;
3309;SDS011;1667;53.238;10.394;2022-11-20T06:24:31;6.80;;;5.60;;
3309;SDS011;1667;53.238;10.394;2022-11-20T06:29:31;8.87;;;6.23;;
3309;SDS011;1667;53.238;10.394;2022-11-20T06:34:29;8.13;;;6.03;;
3309;SDS011;1667;53.238;10.394;2022-11-20T06:39:27;9.00;;;6.43;;
3309;SDS011;1667;53.238;10.394;2022-11-20T06:50:50;11.90;;;6.87;;
3309;SDS011;1667;53.238;10.394;2022-11-20T06:55:48;14.83;;;7.20;;
3309;SDS011;1667;53.238;10.394;2022-11-20T07:00:47;10.03;;;6.13;;
3309;SDS011;1667;53.238;10.394;2022-11-20T07:05:45;11.10;;;6.70;;
3309;SDS011;1667;53.238;10.394;2022-11-20T07:10:45;11.70;;;6.87;;
3309;SDS011;1667;53.238;10.394;2022-11-20T07:15:43;12.73;;;7.90;;
3309;SDS011;1667;53.238;10.394;2022-11-20T07:20:41;8.90;;;6.43;;
3309;SDS011;1667;53.238;10.394;2022-11-20T07:25:39;13.47;;;6.73;;
3309;SDS011;1667;53.238;10.394;2022-11-20T07:30:39;11.23;;;7.23;;
3309;SDS011;1667;53.238;10.394;2022-11-20T07:35:37;9.43;;;6.40;;
3309;SDS011;1667;53.238;10.394;2022-11-20T07:40:35;13.40;;;8.10;;
3309;SDS011;1667;53.238;10.394;2022-11-20T07:45:33;13.20;;;8.23;;
3309;SDS011;1667;53.238;10.394;2022-11-20T07:50:33;10.30;;;7.53;;
3309;SDS011;1667;53.238;10.394;2022-11-20T07:55:31;12.00;;;8.13;;
3309;SDS011;1667;53.238;10.394;2022-11-20T08:00:30;9.50;;;6.47;;
3309;SDS011;1667;53.238;10.394;2022-11-20T08:05:28;8.80;;;6.63;;
3309;SDS011;1667;53.238;10.394;2022-11-20T08:10:27;12.60;;;7.63;;
3309;SDS011;1667;53.238;10.394;2022-11-20T08:15:25;11.90;;;7.03;;
3309;SDS011;1667;53.238;10.394;2022-11-20T08:20:24;14.60;;;9.20;;
3309;SDS011;1667;53.238;10.394;2022-11-20T08:25:22;10.83;;;6.90;;
3309;SDS011;1667;53.238;10.394;2022-11-20T08:30:21;15.43;;;9.43;;
3309;SDS011;1667;53.238;10.394;2022-11-20T08:35:20;12.23;;;7.00;;
3309;SDS011;1667;53.238;10.394;2022-11-20T08:40:18;12.67;;;7.17;;
3309;SDS011;1667;53.238;10.394;2022-11-20T08:45:16;8.87;;;6.30;;
3309;SDS011;1667;53.238;10.394;2022-11-20T08:50:17;9.63;;;7.17;;
3309;SDS011;1667;53.238;10.394;2022-11-20T08:55:15;10.33;;;7.93;;
3309;SDS011;1667;53.238;10.394;2022-11-20T09:00:14;10.50;;;6.90;;
3309;SDS011;1667;53.238;10.394;2022-11-20T09:05:13;13.00;;;7.77;;
3309;SDS011;1667;53.238;10.394;2022-11-20T09:10:13;13.13;;;6.90;;
3309;SDS011;1667;53.238;10.394;2022-11-20T09:15:19;13.37;;;7.60;;
3309;SDS011;1667;53.238;10.394;2022-11-20T09:20:18;12.50;;;7.60;;
3309;SDS011;1667;53.238;10.394;2022-11-20T09:25:18;10.77;;;6.70;;
3309;SDS011;1667;53.238;10.394;2022-11-20T09:30:16;11.80;;;6.30;;
3309;SDS011;1667;53.238;10.394;2022-11-20T09:35:15;9.63;;;6.33;;
3309;SDS011;1667;53.238;10.394;2022-11-20T09:40:18;10.70;;;6.10;;
3309;SDS011;1667;53.238;10.394;2022-11-20T09:45:21;5.77;;;3.17;;
3309;SDS011;1667;53.238;10.394;2022-11-20T09:50:27;12.20;;;7.80;;
3309;SDS011;1667;53.238;10.394;2022-11-20T09:55:31;12.13;;;7.00;;
3309;SDS011;1667;53.238;10.394;2022-11-20T10:00:29;16.37;;;9.97;;
3309;SDS011;1667;53.238;10.394;2022-11-20T10:05:29;12.67;;;6.80;;
3309;SDS011;1667;53.238;10.394;2022-11-20T10:10:38;4.50;;;3.83;;
3309;SDS011;1667;53.238;10.394;2022-11-20T10:15:46;9.00;;;6.63;;
3309;SDS011;1667;53.238;10.394;2022-11-20T10:20:55;9.13;;;6.27;;
3309;SDS011;1667;53.238;10.394;2022-11-20T10:26:03;10.40;;;6.83;;
3309;SDS011;1667;53.238;10.394;2022-11-20T10:31:14;9.63;;;6.23;;
3309;SDS011;1667;53.238;10.394;2022-11-20T10:36:28;11.20;;;6.93;;
3309;SDS011;1667;53.238;10.394;2022-11-20T10:41:34;9.30;;;4.43;;
3309;SDS011;1667;53.238;10.394;2022-11-20T10:46:38;7.47;;;6.27;;
3309;SDS011;1667;53.238;10.394;2022-11-20T10:51:42;7.77;;;5.60;;
3309;SDS011;1667;53.238;10.394;2022-11-20T10:56:51;9.00;;;5.27;;
3309;SDS011;1667;53.238;10.394;2022-11-20T11:01:51;8.87;;;5.27;;
3309;SDS011;1667;53.238;10.394;2022-11-20T11:06:49;7.23;;;5.60;;
3309;SDS011;1667;53.238;10.394;2022-11-20T11:11:52;6.20;;;5.30;;
3309;SDS011;1667;53.238;10.394;2022-11-20T11:16:51;5.67;;;4.90;;
3309;SDS011;1667;53.238;10.394;2022-11-20T11:21:51;9.43;;;5.60;;
3309;SDS011;1667;53.238;10.394;2022-11-20T11:26:57;7.20;;;4.97;;
3309;SDS011;1667;53.238;10.394;2022-11-20T11:32:04;9.83;;;4.87;;
3309;SDS011;1667;53.238;10.394;2022-11-20T11:37:03;6.83;;;5.20;;
3309;SDS011;1667;53.238;10.394;2022-11-20T11:48:58;5.60;;;4.37;;
3309;SDS011;1667;53.238;10.394;2022-11-20T11:53:58;3.73;;;3.43;;
3309;SDS011;1667;53.238;10.394;2022-11-20T11:58:59;5.00;;;2.60;;
3309;SDS011;1667;53.238;10.394;2022-11-20T12:04:04;3.67;;;2.93;;
3309;SDS011;1667;53.238;10.394;2022-11-20T12:09:08;4.00;;;3.50;;
3309;SDS011;1667;53.238;10.394;2022-11-20T12:14:09;4.83;;;3.63;;
3309;SDS011;1667;53.238;10.394;2022-11-20T12:19:13;4.97;;;4.23;;
3309;SDS011;1667;53.238;10.394;2022-11-20T12:24:21;3.80;;;3.40;;
3309;SDS011;1667;53.238;10.394;2022-11-20T12:29:35;4.87;;;4.20;;
3309;SDS011;1667;53.238;10.394;2022-11-20T12:34:46;3.83;;;3.57;;
3309;SDS011;1667;53.238;10.394;2022-11-20T12:39:54;5.10;;;3.90;;
3309;SDS011;1667;53.238;10.394;2022-11-20T12:45:02;4.30;;;3.00;;
3309;SDS011;1667;53.238;10.394;2022-11-20T12:50:14;4.97;;;3.90;;
3309;SDS011;1667;53.238;10.394;2022-11-20T12:55:21;6.10;;;5.47;;
3309;SDS011;1667;53.238;10.394;2022-11-20T13:00:25;5.43;;;4.37;;
3309;SDS011;1667;53.238;10.394;2022-11-20T13:05:27;5.37;;;4.30;;
3309;SDS011;1667;53.238;10.394;2022-11-20T13:10:35;4.90;;;4.40;;
3309;SDS011;1667;53.238;10.394;2022-11-20T13:15:47;4.37;;;4.07;;
3309;SDS011;1667;53.238;10.394;2022-11-20T13:20:50;4.97;;;4.10;;
3309;SDS011;1667;53.238;10.394;2022-11-20T13:25:48;4.70;;;4.33;;
3309;SDS011;1667;53.238;10.394;2022-11-20T13:30:49;4.80;;;4.40;;
3309;SDS011;1667;53.238;10.394;2022-11-20T13:35:54;3.50;;;3.23;;
3309;SDS011;1667;53.238;10.394;2022-11-20T13:40:54;3.77;;;3.47;;
3309;SDS011;1667;53.238;10.394;2022-11-20T13:45:54;4.27;;;3.60;;
3309;SDS011;1667;53.238;10.394;2022-11-20T13:51:01;5.00;;;4.10;;
3309;SDS011;1667;53.238;10.394;2022-11-20T13:56:05;5.33;;;4.00;;
3309;SDS011;1667;53.238;10.394;2022-11-20T14:01:14;4.40;;;4.00;;
3309;SDS011;1667;53.238;10.394;2022-11-20T14:06:20;3.77;;;3.50;;
3309;SDS011;1667;53.238;10.394;2022-11-20T14:11:25;4.43;;;3.70;;
3309;SDS011;1667;53.238;10.394;2022-11-20T14:16:25;8.83;;;5.60;;
3309;SDS011;1667;53.238;10.394;2022-11-20T14:21:27;15.00;;;7.67;;
3309;SDS011;1667;53.238;10.394;2022-11-20T14:26:27;11.67;;;7.67;;
3309;SDS011;1667;53.238;10.394;2022-11-20T14:31:25;5.73;;;3.80;;
3309;SDS011;1667;53.238;10.394;2022-11-20T14:36:24;3.73;;;3.03;;
3309;SDS011;1667;53.238;10.394;2022-11-20T14:41:25;5.03;;;4.27;;
3309;SDS011;1667;53.238;10.394;2022-11-20T14:46:23;3.13;;;2.83;;
3309;SDS011;1667;53.238;10.394;2022-11-20T14:51:33;3.73;;;3.43;;
3309;SDS011;1667;53.238;10.394;2022-11-20T14:56:37;5.03;;;3.90;;
3309;SDS011;1667;53.238;10.394;2022-11-20T15:01:35;3.30;;;3.00;;
3309;SDS011;1667;53.238;10.394;2022-11-20T15:06:35;3.00;;;2.73;;
3309;SDS011;1667;53.238;10.394;2022-11-20T15:11:34;3.57;;;3.27;;
3309;SDS011;1667;53.238;10.394;2022-11-20T15:16:33;5.57;;;4.50;;
3309;SDS011;1667;53.238;10.394;2022-11-20T15:21:31;4.50;;;4.10;;
3309;SDS011;1667;53.238;10.394;2022-11-20T15:26:31;3.00;;;2.80;;
3309;SDS011;1667;53.238;10.394;2022-11-20T15:31:30;4.27;;;3.17;;
3309;SDS011;1667;53.238;10.394;2022-11-20T15:36:28;2.97;;;2.77;;
3309;SDS011;1667;53.238;10.394;2022-11-20T15:41:26;4.70;;;3.83;;
3309;SDS011;1667;53.238;10.394;2022-11-20T15:46:26;6.13;;;4.30;;
3309;SDS011;1667;53.238;10.394;2022-11-20T15:51:27;9.30;;;6.50;;
3309;SDS011;1667;53.238;10.394;2022-11-20T15:56:27;7.77;;;5.03;;
3309;SDS011;1667;53.238;10.394;2022-11-20T16:01:27;6.40;;;5.57;;
3309;SDS011;1667;53.238;10.394;2022-11-20T16:06:25;6.47;;;5.47;;
3309;SDS011;1667;53.238;10.394;2022-11-20T16:11:23;5.83;;;5.03;;
3309;SDS011;1667;53.238;10.394;2022-11-20T16:16:22;7.87;;;6.20;;
3309;SDS011;1667;53.238;10.394;2022-11-20T16:21:26;8.17;;;6.23;;
3309;SDS011;1667;53.238;10.394;2022-11-20T16:26:27;7.47;;;6.30;;
3309;SDS011;1667;53.238;10.394;2022-11-20T16:31:26;19.43;;;9.70;;
3309;SDS011;1667;53.238;10.394;2022-11-20T16:36:26;12.60;;;8.53;;
3309;SDS011;1667;53.238;10.394;2022-11-20T16:41:26;9.93;;;6.73;;
3309;SDS011;1667;53.238;10.394;2022-11-20T16:46:25;10.60;;;7.50;;
3309;SDS011;1667;53.238;10.394;2022-11-20T16:51:26;11.27;;;6.97;;
3309;SDS011;1667;53.238;10.394;2022-11-20T16:56:26;7.10;;;5.17;;
3309;SDS011;1667;53.238;10.394;2022-11-20T17:01:25;9.03;;;5.90;;
3309;SDS011;1667;53.238;10.394;2022-11-20T17:06:26;9.37;;;6.10;;
3309;SDS011;1667;53.238;10.394;2022-11-20T17:11:25;8.63;;;5.80;;
3309;SDS011;1667;53.238;10.394;2022-11-20T17:16:24;8.87;;;5.90;;
3309;SDS011;1667;53.238;10.394;2022-11-20T17:21:23;7.80;;;5.77;;
3309;SDS011;1667;53.238;10.394;2022-11-20T17:26:23;8.70;;;5.40;;
3309;SDS011;1667;53.238;10.394;2022-11-20T17:31:21;7.30;;;4.97;;
3309;SDS011;1667;53.238;10.394;2022-11-20T17:36:19;7.10;;;4.70;;
3309;SDS011;1667;53.238;10.394;2022-11-20T17:41:18;6.80;;;5.47;;
3309;SDS011;1667;53.238;10.394;2022-11-20T17:46:20;7.43;;;5.90;;
3309;SDS011;1667;53.238;10.394;2022-11-20T17:51:20;11.00;;;7.40;;
3309;SDS011;1667;53.238;10.394;2022-11-20T17:56:19;9.90;;;6.90;;
3309;SDS011;1667;53.238;10.394;2022-11-20T18:01:36;12.60;;;7.43;;
3309;SDS011;1667;53.238;10.394;2022-11-20T18:06:36;14.40;;;9.00;;
3309;SDS011;1667;53.238;10.394;2022-11-20T18:11:36;12.10;;;9.30;;
3309;SDS011;1667;53.238;10.394;2022-11-20T18:16:37;14.70;;;9.63;;
3309;SDS011;1667;53.238;10.394;2022-11-20T18:21:38;18.33;;;11.07;;
3309;SDS011;1667;53.238;10.394;2022-11-20T18:26:37;16.03;;;9.53;;
3309;SDS011;1667;53.238;10.394;2022-11-20T18:31:41;20.57;;;11.47;;
3309;SDS011;1667;53.238;10.394;2022-11-20T18:36:40;24.27;;;13.73;;
3309;SDS011;1667;53.238;10.394;2022-11-20T18:41:39;19.40;;;11.43;;
3309;SDS011;1667;53.238;10.394;2022-11-20T18:47:08;20.47;;;13.40;;
3309;SDS011;1667;53.238;10.394;2022-11-20T18:52:10;15.77;;;10.57;;
3309;SDS011;1667;53.238;10.394;2022-11-20T18:57:09;16.40;;;11.57;;
3309;SDS011;1667;53.238;10.394;2022-11-20T19:02:12;15.47;;;9.70;;
3309;SDS011;1667;53.238;10.394;2022-11-20T19:07:11;19.03;;;12.03;;
3309;SDS011;1667;53.238;10.394;2022-11-20T19:12:10;18.30;;;10.77;;
3309;SDS011;1667;53.238;10.394;2022-11-20T19:17:09;22.47;;;12.40;;
3309;SDS011;1667;53.238;10.394;2022-11-20T19:22:09;22.60;;;13.57;;
3309;SDS011;1667;53.238;10.394;2022-11-20T19:27:07;32.07;;;16.90;;
3309;SDS011;1667;53.238;10.394;2022-11-20T19:32:05;21.90;;;12.17;;
3309;SDS011;1667;53.238;10.394;2022-11-20T19:37:04;18.47;;;12.10;;
3309;SDS011;1667;53.238;10.394;2022-11-20T19:42:03;19.02;;;14.20;;
3309;SDS011;1667;53.238;10.394;2022-11-20T19:47:02;24.10;;;15.03;;
3309;SDS011;1667;53.238;10.394;2022-11-20T19:52:06;22.03;;;14.27;;
3309;SDS011;1667;53.238;10.394;2022-11-20T19:57:06;22.03;;;13.47;;
3309;SDS011;1667;53.238;10.394;2022-11-20T20:02:04;23.43;;;15.53;;
3309;SDS011;1667;53.238;10.394;2022-11-20T20:07:02;19.77;;;11.30;;
3309;SDS011;1667;53.238;10.394;2022-11-20T20:12:01;16.83;;;11.13;;
3309;SDS011;1667;53.238;10.394;2022-11-20T20:17:01;17.98;;;13.23;;
3309;SDS011;1667;53.238;10.394;2022-11-20T20:21:59;20.37;;;12.70;;
3309;SDS011;1667;53.238;10.394;2022-11-20T20:26:57;22.70;;;14.07;;
3309;SDS011;1667;53.238;10.394;2022-11-20T20:31:55;15.73;;;10.77;;
3309;SDS011;1667;53.238;10.394;2022-11-20T20:36:55;21.70;;;14.17;;
3309;SDS011;1667;53.238;10.394;2022-11-20T20:41:53;15.90;;;10.97;;
3309;SDS011;1667;53.238;10.394;2022-11-20T20:46:51;19.13;;;12.63;;
3309;SDS011;1667;53.238;10.394;2022-11-20T20:51:49;23.77;;;12.23;;
3309;SDS011;1667;53.238;10.394;2022-11-20T20:56:50;12.73;;;9.50;;
3309;SDS011;1667;53.238;10.394;2022-11-20T21:01:49;18.87;;;11.67;;
3309;SDS011;1667;53.238;10.394;2022-11-20T21:06:47;15.93;;;9.30;;
3309;SDS011;1667;53.238;10.394;2022-11-20T21:11:45;17.40;;;10.90;;
3309;SDS011;1667;53.238;10.394;2022-11-20T21:16:45;25.97;;;13.30;;
3309;SDS011;1667;53.238;10.394;2022-11-20T21:21:43;27.90;;;13.67;;
3309;SDS011;1667;53.238;10.394;2022-11-20T21:26:58;20.20;;;11.83;;
3309;SDS011;1667;53.238;10.394;2022-11-20T21:31:59;14.10;;;9.00;;
3309;SDS011;1667;53.238;10.394;2022-11-20T21:36:57;15.80;;;10.03;;
3309;SDS011;1667;53.238;10.394;2022-11-20T21:41:55;21.53;;;11.87;;
3309;SDS011;1667;53.238;10.394;2022-11-20T21:46:53;18.93;;;10.40;;
3309;SDS011;1667;53.238;10.394;2022-11-20T21:51:53;20.03;;;9.90;;
3309;SDS011;1667;53.238;10.394;2022-11-20T21:56:51;12.70;;;8.00;;
3309;SDS011;1667;53.238;10.394;2022-11-20T22:01:49;21.93;;;10.20;;
3309;SDS011;1667;53.238;10.394;2022-11-20T22:06:47;11.60;;;7.83;;
3309;SDS011;1667;53.238;10.394;2022-11-20T22:11:47;15.63;;;9.37;;
3309;SDS011;1667;53.238;10.394;2022-11-20T22:16:45;11.60;;;7.83;;
3309;SDS011;1667;53.238;10.394;2022-11-20T22:21:44;13.30;;;7.83;;
3309;SDS011;1667;53.238;10.394;2022-11-20T22:26:43;20.30;;;10.90;;
3309;SDS011;1667;53.238;10.394;2022-11-20T22:31:43;20.50;;;11.30;;
3309;SDS011;1667;53.238;10.394;2022-11-20T22:36:41;13.83;;;7.70;;
3309;SDS011;1667;53.238;10.394;2022-11-20T22:41:40;16.93;;;9.50;;
3309;SDS011;1667;53.238;10.394;2022-11-20T22:46:38;27.60;;;12.00;;
3309;SDS011;1667;53.238;10.394;2022-11-20T22:51:38;10.17;;;7.83;;
3309;SDS011;1667;53.238;10.394;2022-11-20T22:56:37;25.60;;;12.20;;
3309;SDS011;1667;53.238;10.394;2022-11-20T23:01:35;30.93;;;12.87;;
3309;SDS011;1667;53.238;10.394;2022-11-20T23:06:34;22.07;;;12.70;;
3309;SDS011;1667;53.238;10.394;2022-11-20T23:11:36;23.57;;;12.63;;
3309;SDS011;1667;53.238;10.394;2022-11-20T23:16:35;15.87;;;9.50;;
3309;SDS011;1667;53.238;10.394;2022-11-20T23:21:33;17.93;;;10.80;;
3309;SDS011;1667;53.238;10.394;2022-11-20T23:26:34;23.20;;;11.07;;
3309;SDS011;1667;53.238;10.394;2022-11-20T23:31:35;15.13;;;8.13;;
3309;SDS011;1667;53.238;10.394;2022-11-20T23:36:33;21.20;;;10.47;;
3309;SDS011;1667;53.238;10.394;2022-11-20T23:41:33;11.53;;;8.00;;
3309;SDS011;1667;53.238;10.394;2022-11-20T23:46:32;25.93;;;11.90;;
3309;SDS011;1667;53.238;10.394;2022-11-20T23:51:30;11.90;;;7.27;;
3309;SDS011;1667;53.238;10.394;2022-11-20T23:56:28;17.73;;;10.37;;
